createdAt,value
2018-12-27T00:00:53.986Z,7.17
2018-12-27T00:03:23.479Z,6.90
2018-12-27T00:05:52.946Z,6.63
2018-12-27T00:08:22.516Z,6.20
2018-12-27T00:10:52.088Z,7.00
2018-12-27T00:13:21.594Z,7.40
2018-12-27T00:15:51.299Z,6.47
2018-12-27T00:18:20.793Z,7.40
2018-12-27T00:20:50.290Z,7.33
2018-12-27T00:23:19.834Z,6.60
2018-12-27T00:25:49.326Z,6.67
2018-12-27T00:28:18.841Z,5.70
2018-12-27T00:30:48.915Z,6.33
2018-12-27T00:33:18.554Z,6.70
2018-12-27T00:35:48.271Z,5.90
2018-12-27T00:38:18.516Z,5.97
2018-12-27T00:40:48.353Z,6.53
2018-12-27T00:43:17.997Z,6.20
2018-12-27T00:45:47.732Z,6.03
2018-12-27T00:48:17.354Z,7.20
2018-12-27T00:50:46.989Z,6.90
2018-12-27T00:53:16.782Z,6.93
2018-12-27T00:55:46.646Z,6.00
2018-12-27T00:58:16.332Z,6.77
2018-12-27T01:00:46.269Z,6.63
2018-12-27T01:03:15.899Z,6.40
2018-12-27T01:05:45.642Z,6.60
2018-12-27T01:08:15.489Z,6.63
2018-12-27T01:10:45.256Z,6.77
2018-12-27T01:13:16.083Z,6.60
2018-12-27T01:15:45.827Z,6.57
2018-12-27T01:18:15.870Z,7.00
2018-12-27T01:20:45.674Z,7.67
2018-12-27T01:23:15.369Z,6.53
2018-12-27T01:25:45.034Z,6.20
2018-12-27T01:28:14.689Z,6.73
2018-12-27T01:30:44.498Z,6.80
2018-12-27T01:33:18.689Z,6.53
2018-12-27T01:35:45.409Z,6.80
2018-12-27T01:38:15.089Z,6.10
2018-12-27T01:40:44.749Z,6.53
2018-12-27T01:43:14.402Z,6.00
2018-12-27T01:45:44.142Z,6.60
2018-12-27T01:48:13.767Z,7.43
2018-12-27T01:50:43.448Z,7.03
2018-12-27T01:53:13.110Z,6.63
2018-12-27T01:55:42.801Z,7.00
2018-12-27T01:58:12.419Z,6.27
2018-12-27T02:00:42.240Z,6.33
2018-12-27T02:03:11.873Z,6.57
2018-12-27T02:05:41.617Z,6.07
2018-12-27T02:08:11.309Z,5.97
2018-12-27T02:10:41.053Z,7.33
2018-12-27T02:13:10.685Z,8.47
2018-12-27T02:15:40.602Z,8.93
2018-12-27T02:18:10.201Z,8.23
2018-12-27T02:20:39.957Z,9.73
2018-12-27T02:23:09.615Z,11.73
2018-12-27T02:25:39.359Z,11.70
2018-12-27T02:28:08.991Z,9.50
2018-12-27T02:30:38.746Z,9.60
2018-12-27T02:33:08.384Z,10.80
2018-12-27T02:35:38.246Z,10.00
2018-12-27T02:38:08.554Z,11.20
2018-12-27T02:40:38.217Z,10.70
2018-12-27T02:43:07.867Z,10.33
2018-12-27T02:45:37.949Z,11.23
2018-12-27T02:48:07.541Z,10.40
2018-12-27T02:50:37.429Z,10.93
2018-12-27T02:53:07.055Z,9.80
2018-12-27T02:55:36.800Z,10.23
2018-12-27T02:58:06.453Z,10.47
2018-12-27T03:00:36.210Z,10.80
2018-12-27T03:03:05.816Z,10.33
2018-12-27T03:05:35.959Z,11.40
2018-12-27T03:08:05.863Z,12.07
2018-12-27T03:10:35.497Z,12.47
2018-12-27T03:13:05.286Z,12.30
2018-12-27T03:15:34.918Z,13.77
2018-12-27T03:18:04.664Z,13.07
2018-12-27T03:20:34.368Z,12.30
2018-12-27T03:23:04.107Z,13.93
2018-12-27T03:25:33.747Z,12.60
2018-12-27T03:28:03.496Z,13.40
2018-12-27T03:30:33.169Z,14.23
2018-12-27T03:33:02.995Z,13.60
2018-12-27T03:35:32.692Z,12.90
2018-12-27T03:38:02.391Z,13.63
2018-12-27T03:40:32.018Z,13.83
2018-12-27T03:43:01.844Z,13.70
2018-12-27T03:45:31.467Z,12.80
2018-12-27T03:48:01.154Z,13.77
2018-12-27T03:50:31.250Z,13.30
2018-12-27T03:53:00.874Z,13.27
2018-12-27T03:55:30.872Z,13.40
2018-12-27T03:58:00.564Z,14.30
2018-12-27T04:00:30.293Z,14.60
2018-12-27T04:02:59.958Z,15.73
2018-12-27T04:05:29.723Z,16.00
2018-12-27T04:07:59.335Z,14.87
2018-12-27T04:10:29.033Z,13.80
2018-12-27T04:12:58.705Z,14.43
2018-12-27T04:15:28.488Z,14.27
2018-12-27T04:17:57.987Z,14.93
2018-12-27T04:20:27.551Z,14.37
2018-12-27T04:22:57.115Z,14.80
2018-12-27T04:25:28.229Z,11.97
2018-12-27T04:27:57.759Z,13.53
2018-12-27T04:30:27.356Z,13.70
2018-12-27T04:32:57.333Z,14.13
2018-12-27T04:35:27.285Z,12.70
2018-12-27T04:37:56.778Z,13.60
2018-12-27T04:40:26.231Z,14.00
2018-12-27T04:42:56.017Z,15.53
2018-12-27T04:45:25.509Z,16.27
2018-12-27T04:47:55.177Z,17.83
2018-12-27T04:50:24.777Z,19.10
2018-12-27T04:52:54.364Z,17.77
2018-12-27T04:55:23.892Z,20.73
2018-12-27T04:57:53.447Z,18.57
2018-12-27T05:00:22.967Z,17.70
2018-12-27T05:02:52.469Z,18.23
2018-12-27T05:05:21.993Z,18.17
2018-12-27T05:07:51.470Z,16.87
2018-12-27T05:10:21.048Z,16.97
2018-12-27T05:12:50.592Z,17.83
2018-12-27T05:15:20.041Z,16.00
2018-12-27T05:17:50.091Z,15.27
2018-12-27T05:20:20.191Z,15.77
2018-12-27T05:22:49.652Z,14.80
2018-12-27T05:25:19.405Z,13.93
2018-12-27T05:27:48.912Z,13.90
2018-12-27T05:30:18.384Z,13.63
2018-12-27T05:32:47.979Z,13.37
2018-12-27T05:35:17.486Z,13.57
2018-12-27T05:37:46.950Z,14.07
2018-12-27T05:40:16.604Z,13.97
2018-12-27T05:42:46.125Z,12.20
2018-12-27T05:45:15.629Z,14.20
2018-12-27T05:47:45.485Z,13.33
2018-12-27T05:50:15.468Z,11.83
2018-12-27T05:52:44.930Z,12.00
2018-12-27T05:55:14.388Z,11.97
2018-12-27T05:57:43.973Z,12.97
2018-12-27T06:00:13.457Z,12.97
2018-12-27T06:02:43.014Z,11.80
2018-12-27T06:05:12.922Z,12.00
2018-12-27T06:07:42.400Z,12.60
2018-12-27T06:10:11.985Z,11.50
2018-12-27T06:12:41.510Z,11.13
2018-12-27T06:15:10.961Z,12.13
2018-12-27T06:17:40.834Z,11.90
2018-12-27T06:20:10.364Z,12.13
2018-12-27T06:22:39.846Z,12.17
2018-12-27T06:25:09.437Z,10.73
2018-12-27T06:27:41.299Z,10.97
2018-12-27T06:30:10.798Z,10.13
2018-12-27T06:32:40.265Z,10.13
2018-12-27T06:35:09.790Z,10.33
2018-12-27T06:37:39.388Z,10.33
2018-12-27T06:40:08.865Z,11.00
2018-12-27T06:42:38.423Z,10.67
2018-12-27T06:45:08.288Z,10.60
2018-12-27T06:47:37.791Z,12.03
2018-12-27T06:50:07.265Z,13.20
2018-12-27T06:52:36.771Z,13.83
2018-12-27T06:55:06.326Z,14.87
2018-12-27T06:57:35.885Z,13.30
2018-12-27T07:00:06.323Z,11.47
2018-12-27T07:02:35.820Z,11.90
2018-12-27T07:05:05.416Z,12.03
2018-12-27T07:07:35.025Z,11.40
2018-12-27T07:10:04.675Z,12.27
2018-12-27T07:12:34.510Z,10.70
2018-12-27T07:15:04.197Z,11.00
2018-12-27T07:17:33.943Z,11.37
2018-12-27T07:20:03.405Z,12.13
2018-12-27T07:22:33.328Z,11.33
2018-12-27T07:25:02.799Z,13.47
2018-12-27T07:27:32.275Z,12.33
2018-12-27T07:30:01.947Z,11.83
2018-12-27T07:32:31.443Z,12.10
2018-12-27T07:35:00.918Z,12.47
2018-12-27T07:37:30.661Z,13.00
2018-12-27T07:40:00.175Z,12.07
2018-12-27T07:42:29.621Z,12.57
2018-12-27T07:44:59.217Z,12.00
2018-12-27T07:47:28.679Z,12.27
2018-12-27T07:49:58.169Z,11.50
2018-12-27T07:52:27.858Z,11.73
2018-12-27T07:54:57.329Z,11.80
2018-12-27T07:57:27.165Z,11.73
2018-12-27T07:59:56.699Z,12.80
2018-12-27T08:02:26.199Z,12.13
2018-12-27T08:04:56.196Z,12.83
2018-12-27T08:07:25.933Z,12.37
2018-12-27T08:09:55.392Z,12.80
2018-12-27T08:12:24.863Z,13.30
2018-12-27T08:14:54.386Z,17.17
2018-12-27T08:17:23.991Z,20.70
2018-12-27T08:19:53.474Z,13.73
2018-12-27T08:22:23.032Z,11.87
2018-12-27T08:24:52.587Z,11.40
2018-12-27T08:27:22.075Z,11.80
2018-12-27T08:29:51.578Z,12.30
2018-12-27T08:32:21.067Z,18.23
2018-12-27T08:34:50.553Z,32.33
2018-12-27T08:37:20.070Z,32.97
2018-12-27T08:39:49.542Z,24.07
2018-12-27T08:42:19.157Z,18.73
2018-12-27T08:44:48.635Z,14.97
2018-12-27T08:47:18.143Z,13.33
2018-12-27T08:49:47.720Z,13.50
2018-12-27T08:52:17.220Z,15.93
2018-12-27T08:54:46.678Z,16.13
2018-12-27T08:57:16.370Z,17.47
2018-12-27T08:59:45.850Z,15.47
2018-12-27T09:02:15.340Z,20.10
2018-12-27T09:04:45.128Z,20.00
2018-12-27T09:07:14.625Z,17.33
2018-12-27T09:09:44.132Z,15.33
2018-12-27T09:12:13.742Z,16.07
2018-12-27T09:14:43.229Z,23.10
2018-12-27T09:17:12.982Z,16.20
2018-12-27T09:19:42.520Z,13.30
2018-12-27T09:22:12.009Z,24.30
2018-12-27T09:24:41.836Z,21.47
2018-12-27T09:27:11.386Z,18.10
2018-12-27T09:29:40.894Z,19.50
2018-12-27T09:32:10.374Z,18.40
2018-12-27T09:34:39.953Z,16.83
2018-12-27T09:37:09.465Z,13.57
2018-12-27T09:39:38.982Z,14.83
2018-12-27T09:42:08.638Z,16.97
2018-12-27T09:44:38.145Z,16.73
2018-12-27T09:47:07.672Z,14.93
2018-12-27T09:49:37.257Z,15.53
2018-12-27T09:52:06.731Z,17.03
2018-12-27T09:54:36.262Z,17.23
2018-12-27T09:57:05.772Z,19.43
2018-12-27T09:59:35.234Z,24.10
2018-12-27T10:02:05.140Z,25.43
2018-12-27T10:04:34.688Z,22.73
2018-12-27T10:07:04.398Z,25.67
2018-12-27T10:09:33.973Z,26.47
2018-12-27T10:12:03.484Z,23.67
2018-12-27T10:14:33.011Z,25.60
2018-12-27T10:17:02.556Z,27.33
2018-12-27T10:19:32.195Z,26.93
2018-12-27T10:22:01.683Z,26.73
2018-12-27T10:24:31.394Z,26.97
2018-12-27T10:27:01.261Z,26.07
2018-12-27T10:29:30.783Z,24.83
2018-12-27T10:32:00.511Z,24.23
2018-12-27T10:34:30.024Z,20.87
2018-12-27T10:36:59.790Z,17.93
2018-12-27T10:39:29.329Z,15.53
2018-12-27T10:42:00.237Z,16.63
2018-12-27T10:44:29.726Z,16.50
2018-12-27T10:46:59.224Z,17.30
2018-12-27T10:49:29.117Z,14.50
2018-12-27T10:51:58.599Z,13.60
2018-12-27T10:54:28.445Z,13.17
2018-12-27T10:56:57.985Z,11.80
2018-12-27T10:59:27.843Z,14.33
2018-12-27T11:01:57.383Z,14.20
2018-12-27T11:04:27.004Z,11.33
2018-12-27T11:06:57.363Z,10.97
2018-12-27T11:09:26.908Z,10.00
2018-12-27T11:11:56.360Z,9.83
2018-12-27T11:14:25.993Z,10.37
2018-12-27T11:16:55.494Z,9.17
2018-12-27T11:19:24.936Z,9.90
2018-12-27T11:21:54.513Z,8.80
2018-12-27T11:24:23.957Z,9.77
2018-12-27T11:26:53.434Z,9.93
2018-12-27T11:29:22.964Z,9.80
2018-12-27T11:31:52.518Z,10.53
2018-12-27T11:34:22.002Z,10.40
2018-12-27T11:36:51.548Z,10.90
2018-12-27T11:39:21.278Z,10.40
2018-12-27T11:41:50.732Z,9.73
2018-12-27T11:44:20.445Z,10.27
2018-12-27T11:46:49.929Z,9.40
2018-12-27T11:49:19.419Z,10.03
2018-12-27T11:51:49.008Z,10.60
2018-12-27T11:54:18.509Z,12.13
2018-12-27T11:56:47.988Z,12.40
2018-12-27T11:59:17.437Z,11.00
2018-12-27T12:01:46.888Z,9.97
2018-12-27T12:04:16.399Z,10.03
2018-12-27T12:06:45.898Z,9.77
2018-12-27T12:09:15.382Z,9.13
2018-12-27T12:11:45.062Z,9.17
2018-12-27T12:14:14.525Z,9.50
2018-12-27T12:16:44.033Z,9.43
2018-12-27T12:19:13.756Z,8.83
2018-12-27T12:21:43.290Z,9.00
2018-12-27T12:24:12.748Z,8.50
2018-12-27T12:26:42.298Z,7.80
2018-12-27T12:29:11.735Z,8.20
2018-12-27T12:31:41.201Z,7.93
2018-12-27T12:34:10.918Z,8.93
2018-12-27T12:36:41.331Z,7.93
2018-12-27T12:39:10.816Z,8.87
2018-12-27T12:41:40.454Z,8.83
2018-12-27T12:44:09.977Z,8.83
2018-12-27T12:46:39.434Z,9.43
2018-12-27T12:49:09.107Z,9.40
2018-12-27T12:51:38.654Z,10.37
2018-12-27T12:54:08.127Z,10.50
2018-12-27T12:56:37.788Z,9.83
2018-12-27T12:59:07.302Z,11.17
2018-12-27T13:01:36.767Z,10.60
2018-12-27T13:04:06.481Z,10.57
2018-12-27T13:06:36.061Z,11.37
2018-12-27T13:09:07.888Z,11.70
2018-12-27T13:11:37.348Z,12.97
2018-12-27T13:14:07.253Z,12.33
2018-12-27T13:16:36.716Z,12.93
2018-12-27T13:19:06.179Z,13.63
2018-12-27T13:21:35.854Z,13.57
2018-12-27T13:24:05.333Z,14.27
2018-12-27T13:26:34.801Z,15.10
2018-12-27T13:29:04.343Z,12.97
2018-12-27T13:31:33.852Z,14.67
2018-12-27T13:34:03.316Z,16.80
2018-12-27T13:36:36.227Z,16.43
2018-12-27T13:39:07.651Z,14.97
2018-12-27T13:41:37.153Z,15.40
2018-12-27T13:44:06.701Z,14.20
2018-12-27T13:46:36.189Z,17.67
2018-12-27T13:49:05.641Z,16.73
2018-12-27T13:51:35.643Z,18.03
2018-12-27T13:54:05.303Z,18.47
2018-12-27T13:56:34.772Z,17.97
2018-12-27T13:59:04.286Z,19.23
2018-12-27T14:01:33.799Z,20.00
2018-12-27T14:04:03.378Z,19.10
2018-12-27T14:06:33.029Z,20.43
2018-12-27T14:09:03.047Z,20.37
2018-12-27T14:11:32.521Z,20.23
2018-12-27T14:14:02.152Z,22.10
2018-12-27T14:16:31.640Z,19.90
2018-12-27T14:19:01.095Z,24.47
2018-12-27T14:21:30.721Z,24.73
2018-12-27T14:24:00.204Z,23.60
2018-12-27T14:26:29.730Z,24.97
2018-12-27T14:28:59.283Z,22.70
2018-12-27T14:31:28.762Z,20.73
2018-12-27T14:33:58.270Z,21.43
2018-12-27T14:36:27.804Z,21.53
2018-12-27T14:38:57.369Z,21.83
2018-12-27T14:41:26.908Z,22.77
2018-12-27T14:43:56.417Z,21.87
2018-12-27T14:46:25.971Z,25.93
2018-12-27T14:48:55.474Z,21.33
2018-12-27T14:51:24.953Z,21.60
2018-12-27T14:53:54.757Z,25.03
2018-12-27T14:56:25.209Z,20.73
2018-12-27T14:58:54.880Z,21.20
2018-12-27T15:01:24.313Z,19.43
2018-12-27T15:03:53.773Z,19.17
2018-12-27T15:06:23.311Z,24.60
2018-12-27T15:08:52.859Z,27.73
2018-12-27T15:11:22.352Z,21.70
2018-12-27T15:13:51.849Z,21.63
2018-12-27T15:16:21.392Z,22.23
2018-12-27T15:18:50.871Z,21.50
2018-12-27T15:21:20.644Z,17.50
2018-12-27T15:23:50.189Z,18.93
2018-12-27T15:26:19.663Z,17.50
2018-12-27T15:28:49.223Z,15.80
2018-12-27T15:31:18.671Z,16.33
2018-12-27T15:33:48.141Z,16.97
2018-12-27T15:36:17.687Z,14.90
2018-12-27T15:38:47.146Z,13.77
2018-12-27T15:41:16.634Z,14.53
2018-12-27T15:43:46.153Z,12.83
2018-12-27T15:46:15.674Z,13.23
2018-12-27T15:48:45.394Z,16.30
2018-12-27T15:51:14.936Z,16.13
2018-12-27T15:53:44.437Z,17.30
2018-12-27T15:56:14.038Z,18.93
2018-12-27T15:58:43.588Z,21.10
2018-12-27T16:01:13.206Z,20.57
2018-12-27T16:03:42.706Z,18.83
2018-12-27T16:06:12.257Z,18.63
2018-12-27T16:08:41.936Z,16.33
2018-12-27T16:11:11.382Z,14.33
2018-12-27T16:13:40.934Z,15.83
2018-12-27T16:16:10.427Z,15.27
2018-12-27T16:18:39.929Z,14.97
2018-12-27T16:21:09.497Z,17.13
2018-12-27T16:23:39.111Z,16.53
2018-12-27T16:26:08.619Z,17.07
2018-12-27T16:28:38.150Z,17.90
2018-12-27T16:31:07.679Z,17.13
2018-12-27T16:33:37.182Z,18.67
2018-12-27T16:36:06.765Z,20.97
2018-12-27T16:38:36.321Z,20.33
2018-12-27T16:41:05.828Z,19.83
2018-12-27T16:43:35.395Z,16.97
2018-12-27T16:46:04.880Z,16.83
2018-12-27T16:48:34.463Z,18.57
2018-12-27T16:51:04.040Z,23.57
2018-12-27T16:53:33.551Z,22.63
2018-12-27T16:56:03.067Z,19.53
2018-12-27T16:58:32.605Z,18.33
2018-12-27T17:01:02.399Z,16.27
2018-12-27T17:03:32.315Z,15.50
2018-12-27T17:06:02.058Z,18.83
2018-12-27T17:08:31.598Z,18.57
2018-12-27T17:11:01.242Z,17.83
2018-12-27T17:13:30.857Z,20.57
2018-12-27T17:16:00.450Z,24.80
2018-12-27T17:18:30.008Z,25.00
2018-12-27T17:20:59.532Z,18.60
2018-12-27T17:23:29.173Z,51.87
2018-12-27T17:25:58.703Z,25.73
2018-12-27T17:28:28.248Z,20.50
2018-12-27T17:30:57.871Z,22.37
2018-12-27T17:33:27.430Z,18.77
2018-12-27T17:35:57.043Z,19.63
2018-12-27T17:38:26.713Z,24.93
2018-12-27T17:40:56.254Z,21.53
2018-12-27T17:43:26.478Z,19.90
2018-12-27T17:45:56.037Z,19.33
2018-12-27T17:48:25.587Z,17.23
2018-12-27T17:50:55.142Z,18.63
2018-12-27T17:53:24.669Z,21.67
2018-12-27T17:55:54.350Z,19.33
2018-12-27T17:58:23.860Z,25.37
2018-12-27T18:00:53.719Z,18.40
2018-12-27T18:03:23.345Z,20.07
2018-12-27T18:05:53.015Z,19.93
2018-12-27T18:08:22.660Z,19.90
2018-12-27T18:10:52.287Z,19.20
2018-12-27T18:13:21.858Z,18.60
2018-12-27T18:15:51.337Z,17.20
2018-12-27T18:18:21.283Z,18.30
2018-12-27T18:20:51.195Z,17.70
2018-12-27T18:23:21.158Z,17.17
2018-12-27T18:25:50.801Z,17.77
2018-12-27T18:28:20.367Z,19.27
2018-12-27T18:30:50.209Z,17.53
2018-12-27T18:33:19.784Z,18.60
2018-12-27T18:35:49.621Z,19.37
2018-12-27T18:38:19.238Z,20.77
2018-12-27T18:40:48.856Z,17.63
2018-12-27T18:43:18.404Z,17.50
2018-12-27T18:45:47.942Z,19.50
2018-12-27T18:48:17.537Z,18.20
2018-12-27T18:50:47.077Z,16.57
2018-12-27T18:53:16.634Z,16.17
2018-12-27T18:55:46.496Z,16.67
2018-12-27T18:58:16.156Z,18.60
2018-12-27T19:00:46.748Z,18.23
2018-12-27T19:03:16.670Z,16.30
2018-12-27T19:05:46.231Z,19.00
2018-12-27T19:08:15.831Z,16.00
2018-12-27T19:11:05.949Z,16.67
2018-12-27T19:13:35.722Z,15.40
2018-12-27T19:16:05.571Z,16.10
2018-12-27T19:18:44.194Z,16.27
2018-12-27T19:21:49.204Z,14.43
2018-12-27T19:24:18.904Z,16.73
2018-12-27T19:26:48.429Z,18.23
2018-12-27T19:29:18.257Z,16.57
2018-12-27T19:31:47.811Z,19.67
2018-12-27T19:34:17.343Z,18.90
2018-12-27T19:36:46.828Z,17.57
2018-12-27T19:39:16.389Z,16.90
2018-12-27T19:41:47.502Z,16.77
2018-12-27T19:44:17.012Z,17.47
2018-12-27T19:46:46.795Z,19.87
2018-12-27T19:49:16.349Z,17.43
2018-12-27T19:51:46.063Z,16.07
2018-12-27T19:54:15.702Z,15.90
2018-12-27T19:56:45.267Z,15.87
2018-12-27T19:59:14.846Z,17.07
2018-12-27T20:01:44.432Z,16.97
2018-12-27T20:04:14.049Z,15.07
2018-12-27T20:06:46.608Z,15.00
2018-12-27T20:09:16.402Z,16.47
2018-12-27T20:11:45.911Z,16.20
2018-12-27T20:14:15.472Z,16.80
2018-12-27T20:16:44.995Z,18.77
2018-12-27T20:19:14.524Z,19.10
2018-12-27T20:21:44.045Z,18.30
2018-12-27T20:24:13.591Z,19.33
2018-12-27T20:26:43.496Z,18.77
2018-12-27T20:29:13.023Z,20.27
2018-12-27T20:31:42.600Z,18.83
2018-12-27T20:34:12.121Z,18.07
2018-12-27T20:36:41.667Z,19.87
2018-12-27T20:39:12.139Z,21.97
2018-12-27T20:41:41.683Z,18.90
2018-12-27T20:44:11.161Z,20.13
2018-12-27T20:46:40.787Z,20.70
2018-12-27T20:49:10.275Z,21.13
2018-12-27T20:51:39.743Z,21.23
2018-12-27T20:54:09.320Z,18.83
2018-12-27T20:56:38.790Z,17.60
2018-12-27T20:59:08.320Z,18.10
2018-12-27T21:01:38.031Z,17.47
2018-12-27T21:04:07.511Z,23.13
2018-12-27T21:06:36.995Z,22.50
2018-12-27T21:09:08.074Z,18.50
2018-12-27T21:11:37.738Z,19.97
2018-12-27T21:14:07.196Z,20.67
2018-12-27T21:16:36.696Z,19.27
2018-12-27T21:19:07.048Z,18.90
2018-12-27T21:21:36.527Z,15.77
2018-12-27T21:24:06.042Z,14.13
2018-12-27T21:26:35.509Z,14.80
2018-12-27T21:29:04.981Z,16.40
2018-12-27T21:31:34.506Z,17.30
2018-12-27T21:34:04.007Z,15.90
2018-12-27T21:36:33.478Z,17.63
2018-12-27T21:39:04.111Z,18.40
2018-12-27T21:41:33.609Z,17.23
2018-12-27T21:44:03.066Z,17.60
2018-12-27T21:46:32.582Z,17.57
2018-12-27T21:49:02.056Z,17.80
2018-12-27T21:51:31.536Z,17.53
2018-12-27T21:54:01.061Z,18.70
2018-12-27T21:56:30.546Z,17.47
2018-12-27T21:58:59.983Z,17.87
2018-12-27T22:01:29.555Z,16.57
2018-12-27T22:03:59.053Z,17.83
2018-12-27T22:06:28.531Z,18.50
2018-12-27T22:08:58.086Z,23.53
2018-12-27T22:11:27.586Z,18.63
2018-12-27T22:13:57.059Z,22.83
2018-12-27T22:16:26.609Z,16.87
2018-12-27T22:18:56.067Z,22.03
2018-12-27T22:21:25.548Z,17.67
2018-12-27T22:23:55.042Z,21.63
2018-12-27T22:26:24.542Z,16.80
2018-12-27T22:28:54.028Z,15.20
2018-12-27T22:31:23.541Z,18.27
2018-12-27T22:33:53.020Z,16.47
2018-12-27T22:36:22.537Z,16.93
2018-12-27T22:38:51.999Z,16.27
2018-12-27T22:41:21.532Z,16.13
2018-12-27T22:43:50.977Z,16.93
2018-12-27T22:46:20.528Z,16.03
2018-12-27T22:48:50.033Z,18.97
2018-12-27T22:51:19.690Z,15.57
2018-12-27T22:53:49.343Z,15.63
2018-12-27T22:56:18.837Z,17.33
2018-12-27T22:58:48.312Z,15.40
2018-12-27T23:01:17.790Z,15.27
2018-12-27T23:03:47.284Z,17.50
2018-12-27T23:06:16.774Z,15.83
2018-12-27T23:08:46.254Z,16.67
2018-12-27T23:11:15.771Z,15.63
2018-12-27T23:13:45.257Z,16.30
2018-12-27T23:16:14.792Z,15.13
2018-12-27T23:18:44.235Z,15.47
2018-12-27T23:21:13.745Z,16.53
2018-12-27T23:23:43.307Z,15.80
2018-12-27T23:26:12.753Z,14.53
2018-12-27T23:28:42.212Z,14.93
2018-12-27T23:31:11.728Z,15.13
2018-12-27T23:33:41.173Z,13.97
2018-12-27T23:36:10.635Z,14.60
2018-12-27T23:38:40.160Z,14.43
2018-12-27T23:41:09.612Z,14.00
2018-12-27T23:43:39.053Z,15.43
2018-12-27T23:46:08.573Z,15.17
2018-12-27T23:48:38.100Z,13.50
2018-12-27T23:51:07.534Z,15.17
2018-12-27T23:53:37.069Z,14.13
2018-12-27T23:56:06.540Z,13.47
2018-12-27T23:58:36.040Z,13.67
